createdAt,value
2023-04-24T00:00:19.245Z,9.20
2023-04-24T00:02:21.012Z,9.20
2023-04-24T00:04:23.018Z,9.10
2023-04-24T00:06:25.174Z,9.20
2023-04-24T00:08:27.095Z,9.20
2023-04-24T00:10:28.855Z,9.10
2023-04-24T00:12:30.659Z,9.10
2023-04-24T00:14:32.714Z,9.10
2023-04-24T00:16:34.413Z,9.10
2023-04-24T00:18:36.049Z,9.20
2023-04-24T00:20:37.692Z,9.20
2023-04-24T00:22:39.388Z,9.30
2023-04-24T00:24:41.506Z,9.40
2023-04-24T00:26:43.311Z,9.40
2023-04-24T00:28:44.991Z,9.40
2023-04-24T00:30:46.643Z,9.40
2023-04-24T00:32:48.337Z,9.30
2023-04-24T00:34:49.992Z,9.40
2023-04-24T00:36:53.212Z,9.40
2023-04-24T00:38:55.590Z,9.40
2023-04-24T00:40:57.405Z,9.40
2023-04-24T00:42:59.345Z,9.40
2023-04-24T00:45:01.915Z,9.40
2023-04-24T00:47:03.838Z,9.40
2023-04-24T00:49:07.117Z,9.40
2023-04-24T00:51:08.855Z,9.40
2023-04-24T00:53:10.922Z,9.40
2023-04-24T00:55:12.550Z,9.40
2023-04-24T00:57:16.212Z,9.40
2023-04-24T00:59:18.904Z,9.40
2023-04-24T01:01:22.002Z,9.40
2023-04-24T01:03:27.391Z,9.40
2023-04-24T01:05:29.462Z,9.40
2023-04-24T01:07:31.584Z,9.40
2023-04-24T01:09:33.252Z,9.40
2023-04-24T01:11:35.086Z,9.40
2023-04-24T01:13:36.767Z,9.40
2023-04-24T01:15:38.495Z,9.40
2023-04-24T01:17:40.650Z,9.40
2023-04-24T01:19:42.602Z,9.40
2023-04-24T01:21:44.954Z,9.40
2023-04-24T01:23:46.979Z,9.40
2023-04-24T01:25:50.398Z,9.40
2023-04-24T01:27:52.455Z,9.40
2023-04-24T01:29:54.505Z,9.40
2023-04-24T01:31:56.795Z,9.40
2023-04-24T01:33:58.615Z,9.40
2023-04-24T01:36:00.724Z,9.40
2023-04-24T01:38:02.733Z,9.40
2023-04-24T01:40:07.620Z,9.40
2023-04-24T01:42:09.269Z,9.40
2023-04-24T01:44:11.225Z,9.40
2023-04-24T01:46:13.114Z,9.40
2023-04-24T01:48:15.183Z,9.40
2023-04-24T01:50:17.269Z,9.40
2023-04-24T01:52:19.748Z,9.40
2023-04-24T01:54:21.441Z,9.40
2023-04-24T01:56:23.700Z,9.40
2023-04-24T01:58:25.797Z,9.40
2023-04-24T02:00:27.514Z,9.40
2023-04-24T02:02:29.940Z,9.40
2023-04-24T02:04:31.842Z,9.30
2023-04-24T02:06:33.554Z,9.30
2023-04-24T02:08:35.187Z,9.30
2023-04-24T02:10:36.861Z,9.30
2023-04-24T02:12:38.550Z,9.30
2023-04-24T02:14:40.365Z,9.30
2023-04-24T02:16:42.259Z,9.30
2023-04-24T02:18:44.084Z,9.30
2023-04-24T02:20:46.064Z,9.30
2023-04-24T02:22:47.924Z,9.30
2023-04-24T02:24:49.632Z,9.40
2023-04-24T02:26:51.277Z,9.40
2023-04-24T02:28:52.993Z,9.40
2023-04-24T02:30:54.656Z,9.30
2023-04-24T02:32:56.457Z,9.30
2023-04-24T02:34:58.112Z,9.30
2023-04-24T02:36:59.789Z,9.30
2023-04-24T02:39:02.178Z,9.30
2023-04-24T02:41:07.101Z,9.30
2023-04-24T02:43:08.704Z,9.30
2023-04-24T02:45:10.825Z,9.30
2023-04-24T02:47:12.547Z,9.30
2023-04-24T02:49:14.270Z,9.30
2023-04-24T02:51:15.978Z,9.40
2023-04-24T02:53:17.805Z,9.40
2023-04-24T02:55:19.697Z,9.40
2023-04-24T02:57:21.732Z,9.40
2023-04-24T02:59:23.539Z,9.50
2023-04-24T03:01:26.069Z,9.50
2023-04-24T03:03:28.023Z,9.50
2023-04-24T03:05:29.851Z,9.50
2023-04-24T03:07:32.587Z,9.40
2023-04-24T03:09:34.229Z,9.30
2023-04-24T03:11:35.938Z,9.20
2023-04-24T03:13:37.624Z,9.00
2023-04-24T03:15:39.303Z,8.90
2023-04-24T03:17:41.101Z,8.80
2023-04-24T03:19:43.012Z,8.70
2023-04-24T03:21:45.386Z,8.70
2023-04-24T03:23:47.762Z,8.60
2023-04-24T03:25:49.618Z,8.60
2023-04-24T03:27:51.319Z,8.50
2023-04-24T03:29:56.061Z,8.50
2023-04-24T03:31:57.783Z,8.50
2023-04-24T03:33:59.447Z,8.40
2023-04-24T03:36:01.115Z,8.40
2023-04-24T03:38:02.839Z,8.40
2023-04-24T03:40:05.489Z,8.40
2023-04-24T03:42:07.179Z,8.40
2023-04-24T03:44:08.828Z,8.40
2023-04-24T03:46:10.732Z,8.40
2023-04-24T03:48:12.437Z,8.40
2023-04-24T03:50:14.179Z,8.40
2023-04-24T03:52:15.980Z,8.50
2023-04-24T03:54:17.672Z,8.50
2023-04-24T03:56:19.314Z,8.50
2023-04-24T03:58:20.993Z,8.50
2023-04-24T04:00:22.789Z,8.50
2023-04-24T04:02:24.710Z,8.50
2023-04-24T04:04:26.661Z,8.50
2023-04-24T04:06:29.485Z,8.50
2023-04-24T04:08:31.395Z,8.50
2023-04-24T04:10:33.174Z,8.40
2023-04-24T04:12:34.851Z,8.40
2023-04-24T04:14:36.467Z,8.40
2023-04-24T04:16:38.149Z,8.40
2023-04-24T04:18:39.870Z,8.40
2023-04-24T04:20:41.564Z,8.40
2023-04-24T04:22:44.601Z,8.40
2023-04-24T04:24:47.217Z,8.40
2023-04-24T04:26:52.313Z,8.50
2023-04-24T04:28:54.131Z,8.50
2023-04-24T04:30:56.305Z,8.50
2023-04-24T04:32:57.983Z,8.60
2023-04-24T04:35:04.028Z,8.50
2023-04-24T04:37:06.059Z,8.50
2023-04-24T04:39:08.466Z,8.60
2023-04-24T04:41:10.586Z,8.60
2023-04-24T04:43:14.224Z,8.60
2023-04-24T04:45:18.276Z,8.60
2023-04-24T04:47:23.671Z,8.50
2023-04-24T04:49:25.398Z,8.50
2023-04-24T04:51:27.074Z,8.40
2023-04-24T04:53:28.816Z,8.40
2023-04-24T04:55:31.057Z,8.30
2023-04-24T04:57:32.747Z,8.20
2023-04-24T04:59:34.403Z,8.10
2023-04-24T05:01:36.595Z,8.10
2023-04-24T05:03:38.483Z,8.00
2023-04-24T05:05:41.605Z,8.00
2023-04-24T05:07:43.292Z,8.00
2023-04-24T05:09:45.846Z,8.00
2023-04-24T05:11:47.555Z,7.90
2023-04-24T05:13:49.259Z,7.90
2023-04-24T05:15:51.053Z,7.90
2023-04-24T05:17:52.814Z,7.90
2023-04-24T05:19:54.884Z,7.90
2023-04-24T05:21:56.586Z,7.90
2023-04-24T05:23:58.285Z,7.90
2023-04-24T05:26:00.003Z,7.90
2023-04-24T05:28:01.824Z,7.90
2023-04-24T05:30:04.009Z,7.90
2023-04-24T05:32:05.857Z,7.80
2023-04-24T05:34:07.590Z,7.80
2023-04-24T05:36:09.351Z,7.80
2023-04-24T05:38:11.125Z,7.80
2023-04-24T05:40:12.951Z,7.80
2023-04-24T05:42:14.621Z,7.70
2023-04-24T05:44:16.322Z,7.70
2023-04-24T05:46:18.086Z,7.80
2023-04-24T05:48:20.034Z,7.80
2023-04-24T05:50:21.891Z,7.80
2023-04-24T05:52:23.577Z,7.80
2023-04-24T05:54:25.335Z,7.80
2023-04-24T05:56:26.997Z,7.80
2023-04-24T05:58:28.672Z,7.80
2023-04-24T06:00:30.482Z,7.80
2023-04-24T06:02:33.784Z,7.80
2023-04-24T06:04:36.055Z,7.90
2023-04-24T06:06:37.879Z,8.00
2023-04-24T06:08:39.556Z,8.10
2023-04-24T06:10:41.268Z,8.20
2023-04-24T06:12:42.952Z,8.20
2023-04-24T06:14:44.841Z,8.30
2023-04-24T06:16:48.897Z,8.30
2023-04-24T06:18:51.934Z,8.20
2023-04-24T06:20:53.576Z,8.30
2023-04-24T06:22:55.653Z,8.30
2023-04-24T06:24:57.352Z,8.30
2023-04-24T06:27:00.926Z,8.30
2023-04-24T06:29:02.728Z,8.30
2023-04-24T06:31:04.546Z,8.30
2023-04-24T06:33:19.417Z,8.20
2023-04-24T06:35:21.567Z,8.20
2023-04-24T06:37:23.435Z,8.20
2023-04-24T06:39:25.333Z,8.40
2023-04-24T06:41:27.390Z,8.60
2023-04-24T06:43:29.057Z,8.70
2023-04-24T06:45:31.853Z,9.10
2023-04-24T06:47:33.536Z,10.10
2023-04-24T06:49:36.715Z,11.20
2023-04-24T06:51:38.327Z,12.40
2023-04-24T06:53:39.982Z,13.40
2023-04-24T06:55:41.815Z,14.20
2023-04-24T06:57:43.655Z,14.80
2023-04-24T06:59:45.536Z,14.80
2023-04-24T07:01:47.457Z,15.00
2023-04-24T07:03:49.238Z,15.70
2023-04-24T07:05:52.193Z,16.30
2023-04-24T07:07:54.174Z,16.60
2023-04-24T07:09:57.336Z,15.90
2023-04-24T07:11:58.999Z,16.10
2023-04-24T07:14:00.811Z,16.00
2023-04-24T07:16:02.533Z,14.90
2023-04-24T07:18:05.885Z,14.20
2023-04-24T07:20:10.251Z,13.60
2023-04-24T07:22:17.729Z,13.20
2023-04-24T07:24:21.026Z,13.90
2023-04-24T07:26:24.098Z,14.90
2023-04-24T07:28:26.426Z,15.30
2023-04-24T07:30:29.978Z,15.40
2023-04-24T07:32:31.856Z,14.70
2023-04-24T07:34:33.589Z,13.80
2023-04-24T07:36:35.496Z,13.00
2023-04-24T07:38:37.182Z,12.00
2023-04-24T07:40:38.878Z,11.20
2023-04-24T07:42:40.844Z,10.70
2023-04-24T07:44:42.683Z,10.20
2023-04-24T07:46:44.377Z,9.70
2023-04-24T07:48:47.357Z,9.40
2023-04-24T07:50:49.565Z,9.30
2023-04-24T07:52:51.223Z,9.40
2023-04-24T07:54:59.170Z,9.40
2023-04-24T07:57:01.888Z,9.50
2023-04-24T07:59:03.589Z,9.50
2023-04-24T08:01:05.388Z,9.60
2023-04-24T08:03:07.379Z,9.80
2023-04-24T08:05:09.774Z,10.30
2023-04-24T08:07:13.949Z,10.70
2023-04-24T08:09:16.013Z,10.80
2023-04-24T08:11:17.798Z,10.60
2023-04-24T08:13:19.565Z,10.40
2023-04-24T08:15:21.244Z,10.20
2023-04-24T08:17:23.029Z,10.40
2023-04-24T08:19:24.784Z,10.50
2023-04-24T08:21:28.082Z,10.80
2023-04-24T08:23:30.896Z,10.90
2023-04-24T08:25:33.036Z,11.00
2023-04-24T08:27:34.915Z,11.00
2023-04-24T08:29:36.956Z,11.10
2023-04-24T08:31:38.672Z,11.20
2023-04-24T08:33:41.971Z,11.10
2023-04-24T08:35:43.748Z,11.00
2023-04-24T08:37:45.688Z,11.40
2023-04-24T08:39:47.510Z,11.50
2023-04-24T08:41:50.004Z,12.20
2023-04-24T08:43:52.686Z,12.30
2023-04-24T08:45:57.564Z,12.60
2023-04-24T08:48:00.763Z,12.60
2023-04-24T08:50:06.656Z,12.50
2023-04-24T08:52:08.680Z,12.20
2023-04-24T08:54:10.807Z,12.50
2023-04-24T08:56:13.067Z,12.30
2023-04-24T08:58:17.286Z,12.00
2023-04-24T09:00:20.763Z,11.80
2023-04-24T09:02:23.959Z,11.90
2023-04-24T09:04:27.547Z,12.50
2023-04-24T09:06:31.195Z,13.20
2023-04-24T09:08:34.558Z,12.80
2023-04-24T09:10:36.422Z,12.20
2023-04-24T09:12:38.136Z,11.40
2023-04-24T09:14:43.577Z,10.90
2023-04-24T09:16:45.346Z,10.60
2023-04-24T09:18:47.179Z,10.40
2023-04-24T09:21:03.667Z,10.40
2023-04-24T09:23:05.394Z,10.40
2023-04-24T09:25:08.876Z,10.70
2023-04-24T09:27:13.679Z,10.90
2023-04-24T09:29:19.462Z,11.00
2023-04-24T09:31:22.997Z,10.90
2023-04-24T09:33:24.729Z,10.70
2023-04-24T09:35:26.520Z,10.40
2023-04-24T09:37:30.448Z,10.10
2023-04-24T09:39:32.112Z,9.80
2023-04-24T09:41:34.218Z,9.80
2023-04-24T09:43:36.769Z,9.70
2023-04-24T09:45:40.366Z,9.60
2023-04-24T09:47:42.773Z,9.50
2023-04-24T09:49:45.049Z,9.40
2023-04-24T09:51:47.179Z,9.30
2023-04-24T09:53:49.063Z,9.30
2023-04-24T09:55:51.424Z,9.20
2023-04-24T09:57:58.243Z,9.20
2023-04-24T10:00:00.022Z,9.10
2023-04-24T10:02:01.849Z,9.20
2023-04-24T10:04:03.704Z,9.40
2023-04-24T10:06:11.683Z,9.70
2023-04-24T10:08:14.329Z,10.50
2023-04-24T10:10:16.398Z,11.20
2023-04-24T10:12:18.572Z,11.40
2023-04-24T10:14:25.009Z,11.30
2023-04-24T10:16:28.494Z,11.20
2023-04-24T10:18:31.351Z,11.00
2023-04-24T10:20:34.694Z,10.80
2023-04-24T10:22:37.159Z,10.90
2023-04-24T10:24:39.373Z,10.90
2023-04-24T10:26:42.311Z,10.90
2023-04-24T10:28:46.849Z,11.40
2023-04-24T10:30:49.627Z,11.80
2023-04-24T10:32:51.385Z,12.00
2023-04-24T10:34:53.203Z,12.10
2023-04-24T10:36:58.138Z,12.00
2023-04-24T10:39:02.957Z,12.70
2023-04-24T10:41:17.174Z,13.60
2023-04-24T10:43:20.248Z,14.70
2023-04-24T10:45:23.263Z,14.80
2023-04-24T10:47:26.178Z,14.20
2023-04-24T10:49:32.309Z,13.40
2023-04-24T10:51:54.488Z,12.40
2023-04-24T10:53:58.850Z,11.90
2023-04-24T10:56:05.135Z,11.50
2023-04-24T10:58:06.977Z,11.10
2023-04-24T11:00:21.652Z,10.60
2023-04-24T11:02:38.575Z,10.40
2023-04-24T11:04:40.479Z,10.10
2023-04-24T11:06:44.222Z,10.00
2023-04-24T11:08:46.649Z,9.90
2023-04-24T11:10:57.597Z,9.80
2023-04-24T11:12:59.262Z,9.90
2023-04-24T11:15:04.399Z,10.10
2023-04-24T11:17:06.905Z,10.40
2023-04-24T11:19:11.182Z,10.60
2023-04-24T11:21:14.015Z,10.70
2023-04-24T11:23:15.915Z,10.80
2023-04-24T11:25:17.643Z,10.80
2023-04-24T11:27:21.255Z,10.80
2023-04-24T11:29:24.099Z,11.00
2023-04-24T11:31:41.607Z,11.20
2023-04-24T11:33:43.274Z,11.30
2023-04-24T11:35:45.400Z,11.40
2023-04-24T11:40:00.673Z,11.40
2023-04-24T11:42:07.882Z,11.20
2023-04-24T11:44:11.024Z,11.20
2023-04-24T11:46:12.749Z,11.30
2023-04-24T11:48:22.968Z,11.40
2023-04-24T11:50:28.706Z,11.50
2023-04-24T11:52:31.548Z,11.50
2023-04-24T11:54:33.633Z,11.60
2023-04-24T11:56:35.460Z,11.90
2023-04-24T11:58:39.227Z,12.10
2023-04-24T12:00:41.537Z,12.10
2023-04-24T12:02:43.519Z,11.70
2023-04-24T12:04:45.587Z,11.70
2023-04-24T12:07:06.444Z,11.40
2023-04-24T12:09:17.678Z,11.20
2023-04-24T12:11:19.891Z,11.00
2023-04-24T12:13:22.620Z,10.70
2023-04-24T12:15:24.703Z,10.30
2023-04-24T12:17:29.828Z,10.00
2023-04-24T12:19:31.797Z,9.70
2023-04-24T12:21:33.678Z,9.30
2023-04-24T12:23:36.841Z,9.10
2023-04-24T12:25:39.943Z,9.20
2023-04-24T12:27:41.880Z,9.30
2023-04-24T12:30:04.496Z,9.50
2023-04-24T12:32:16.350Z,9.80
2023-04-24T12:34:21.860Z,10.00
2023-04-24T12:36:23.526Z,10.10
2023-04-24T12:38:26.987Z,10.10
2023-04-24T12:40:30.013Z,10.10
2023-04-24T12:42:31.934Z,10.10
2023-04-24T12:44:35.615Z,10.10
2023-04-24T12:46:37.458Z,10.00
2023-04-24T12:48:39.386Z,10.00
2023-04-24T12:50:41.937Z,10.00
2023-04-24T12:52:46.173Z,10.00
2023-04-24T12:54:48.052Z,10.00
2023-04-24T12:56:49.692Z,10.00
2023-04-24T12:58:53.196Z,10.00
2023-04-24T13:00:55.270Z,10.00
2023-04-24T13:02:57.261Z,10.00
2023-04-24T13:04:59.803Z,10.00
2023-04-24T13:07:01.476Z,10.00
2023-04-24T13:09:03.398Z,10.20
2023-04-24T13:11:05.070Z,10.20
2023-04-24T13:13:07.254Z,10.40
2023-04-24T13:15:09.345Z,10.50
2023-04-24T13:17:12.844Z,10.40
2023-04-24T13:19:14.656Z,10.40
2023-04-24T13:21:16.343Z,10.40
2023-04-24T13:23:18.154Z,10.30
2023-04-24T13:25:21.334Z,10.10
2023-04-24T13:27:23.003Z,9.60
2023-04-24T13:29:25.003Z,9.10
2023-04-24T13:31:27.040Z,8.80
2023-04-24T13:33:28.682Z,8.60
2023-04-24T13:35:30.473Z,8.50
2023-04-24T13:37:32.123Z,8.50
2023-04-24T13:39:33.867Z,8.60
2023-04-24T13:41:37.104Z,8.90
2023-04-24T13:43:38.762Z,9.20
2023-04-24T13:45:40.525Z,9.80
2023-04-24T13:47:42.523Z,10.70
2023-04-24T13:49:44.343Z,11.00
2023-04-24T13:51:46.830Z,11.00
2023-04-24T13:53:48.485Z,11.10
2023-04-24T13:55:50.661Z,11.20
2023-04-24T13:57:53.281Z,11.60
2023-04-24T13:59:56.576Z,11.80
2023-04-24T14:01:58.404Z,11.70
2023-04-24T14:04:00.992Z,11.40
2023-04-24T14:06:02.857Z,11.10
2023-04-24T14:08:04.532Z,10.90
2023-04-24T14:10:06.717Z,10.40
2023-04-24T14:12:08.936Z,10.10
2023-04-24T14:14:10.672Z,10.00
2023-04-24T14:16:12.678Z,9.90
2023-04-24T14:18:14.474Z,9.80
2023-04-24T14:20:16.175Z,9.60
2023-04-24T14:22:17.817Z,9.60
2023-04-24T14:24:19.974Z,9.80
2023-04-24T14:26:21.760Z,10.10
2023-04-24T14:28:23.493Z,10.20
2023-04-24T14:30:25.366Z,10.20
2023-04-24T14:32:27.452Z,10.40
2023-04-24T14:34:29.103Z,10.70
2023-04-24T14:36:32.506Z,11.50
2023-04-24T14:38:34.944Z,12.30
2023-04-24T14:41:04.583Z,13.00
2023-04-24T14:42:58.919Z,13.10
2023-04-24T14:45:00.793Z,13.20
2023-04-24T14:47:02.670Z,12.90
2023-04-24T14:49:04.431Z,12.50
2023-04-24T14:51:06.235Z,12.00
2023-04-24T14:53:07.912Z,12.00
2023-04-24T14:55:09.952Z,12.60
2023-04-24T14:57:11.892Z,12.80
2023-04-24T14:59:14.121Z,12.90
2023-04-24T15:01:17.731Z,12.80
2023-04-24T15:03:20.393Z,12.40
2023-04-24T15:05:23.000Z,12.20
2023-04-24T15:07:24.836Z,12.20
2023-04-24T15:09:27.443Z,12.00
2023-04-24T15:11:29.416Z,11.80
2023-04-24T15:13:31.161Z,11.50
2023-04-24T15:15:32.952Z,11.10
2023-04-24T15:17:34.767Z,11.00
2023-04-24T15:19:36.581Z,11.10
2023-04-24T15:21:38.849Z,11.40
2023-04-24T15:23:40.520Z,12.10
2023-04-24T15:25:42.211Z,12.50
2023-04-24T15:27:44.772Z,12.60
2023-04-24T15:29:46.471Z,12.40
2023-04-24T15:31:48.261Z,12.50
2023-04-24T15:33:53.238Z,12.50
2023-04-24T15:35:55.155Z,12.10
2023-04-24T15:37:56.946Z,11.60
2023-04-24T15:40:00.570Z,11.30
2023-04-24T15:42:02.677Z,11.00
2023-04-24T15:44:04.492Z,10.90
2023-04-24T15:46:06.457Z,10.60
2023-04-24T15:48:08.211Z,10.40
2023-04-24T15:50:13.571Z,10.20
2023-04-24T15:52:16.351Z,10.20
2023-04-24T15:54:17.976Z,10.10
2023-04-24T15:56:20.190Z,10.10
2023-04-24T15:58:21.862Z,10.10
2023-04-24T16:00:23.693Z,9.80
2023-04-24T16:02:25.604Z,9.60
2023-04-24T16:04:27.461Z,9.40
2023-04-24T16:06:29.242Z,9.50
2023-04-24T16:08:31.079Z,9.80
2023-04-24T16:10:33.191Z,10.30
2023-04-24T16:12:34.880Z,10.80
2023-04-24T16:14:37.899Z,11.00
2023-04-24T16:16:39.648Z,11.00
2023-04-24T16:18:41.336Z,11.10
2023-04-24T16:20:43.162Z,11.30
2023-04-24T16:22:44.854Z,11.50
2023-04-24T16:24:47.956Z,11.50
2023-04-24T16:26:53.124Z,11.60
2023-04-24T16:28:55.786Z,11.50
2023-04-24T16:30:58.136Z,11.50
2023-04-24T16:32:59.959Z,11.40
2023-04-24T16:35:02.121Z,11.40
2023-04-24T16:37:04.899Z,11.20
2023-04-24T16:39:07.141Z,10.90
2023-04-24T16:41:08.904Z,10.80
2023-04-24T16:43:10.826Z,10.80
2023-04-24T16:45:12.539Z,10.80
2023-04-24T16:47:14.811Z,10.80
2023-04-24T16:49:16.544Z,10.90
2023-04-24T16:51:18.283Z,10.70
2023-04-24T16:53:20.155Z,10.60
2023-04-24T16:55:21.875Z,10.50
2023-04-24T16:57:23.730Z,10.60
2023-04-24T16:59:25.580Z,10.80
2023-04-24T17:01:27.715Z,11.00
2023-04-24T17:03:29.727Z,11.30
2023-04-24T17:05:32.871Z,11.50
2023-04-24T17:07:34.696Z,11.60
2023-04-24T17:09:36.411Z,11.70
2023-04-24T17:11:38.105Z,11.70
2023-04-24T17:13:39.760Z,11.30
2023-04-24T17:15:42.559Z,11.00
2023-04-24T17:17:46.007Z,10.70
2023-04-24T17:19:47.760Z,10.40
2023-04-24T17:21:49.466Z,10.10
2023-04-24T17:23:51.182Z,9.80
2023-04-24T17:25:52.904Z,9.60
2023-04-24T17:27:55.074Z,9.50
2023-04-24T17:29:56.929Z,9.30
2023-04-24T17:31:58.616Z,9.20
2023-04-24T17:34:00.785Z,9.20
2023-04-24T17:36:02.471Z,9.30
2023-04-24T17:38:04.228Z,9.40
2023-04-24T17:40:07.095Z,9.30
2023-04-24T17:42:08.759Z,9.20
2023-04-24T17:44:10.555Z,9.20
2023-04-24T17:46:12.990Z,9.10
2023-04-24T17:48:15.279Z,9.20
2023-04-24T17:50:16.992Z,9.20
2023-04-24T17:52:18.673Z,9.20
2023-04-24T17:54:20.299Z,9.20
2023-04-24T17:56:24.885Z,9.20
2023-04-24T17:58:27.023Z,9.10
2023-04-24T18:00:32.793Z,9.00
2023-04-24T18:02:36.340Z,8.90
2023-04-24T18:04:39.418Z,8.80
2023-04-24T18:06:41.458Z,8.80
2023-04-24T18:08:43.663Z,8.70
2023-04-24T18:10:45.956Z,8.70
2023-04-24T18:12:47.970Z,8.70
2023-04-24T18:14:50.463Z,8.70
2023-04-24T18:16:55.942Z,8.80
2023-04-24T18:18:58.580Z,8.80
2023-04-24T18:21:00.281Z,8.80
2023-04-24T18:23:03.589Z,8.70
2023-04-24T18:25:06.106Z,8.70
2023-04-24T18:27:07.735Z,8.80
2023-04-24T18:29:09.399Z,8.80
2023-04-24T18:31:11.301Z,8.80
2023-04-24T18:33:13.244Z,8.80
2023-04-24T18:35:14.964Z,8.90
2023-04-24T18:37:16.873Z,8.90
2023-04-24T18:39:18.475Z,8.90
2023-04-24T18:41:20.259Z,8.90
2023-04-24T18:43:22.111Z,8.90
2023-04-24T18:45:23.873Z,8.90
2023-04-24T18:47:25.712Z,8.90
2023-04-24T18:49:27.452Z,8.90
2023-04-24T18:51:29.098Z,8.90
2023-04-24T18:53:30.952Z,8.90
2023-04-24T18:55:33.772Z,8.90
2023-04-24T18:57:35.517Z,8.90
2023-04-24T18:59:37.372Z,8.90
2023-04-24T19:01:39.327Z,8.80
2023-04-24T19:03:41.276Z,8.90
2023-04-24T19:05:43.011Z,8.80
2023-04-24T19:07:44.660Z,8.80
2023-04-24T19:09:46.397Z,8.80
2023-04-24T19:11:48.755Z,8.80
2023-04-24T19:13:50.929Z,8.70
2023-04-24T19:15:52.733Z,8.70
2023-04-24T19:17:54.451Z,8.60
2023-04-24T19:19:56.159Z,8.50
2023-04-24T19:21:57.949Z,8.40
2023-04-24T19:23:59.707Z,8.40
2023-04-24T19:26:01.392Z,8.30
2023-04-24T19:28:03.438Z,8.30
2023-04-24T19:30:06.247Z,8.20
2023-04-24T19:32:08.674Z,8.20
2023-04-24T19:34:10.880Z,8.10
2023-04-24T19:36:12.805Z,8.10
2023-04-24T19:38:14.539Z,8.10
2023-04-24T19:40:16.300Z,8.00
2023-04-24T19:42:21.198Z,7.90
2023-04-24T19:44:27.366Z,7.80
2023-04-24T19:46:29.085Z,7.80
2023-04-24T19:48:31.106Z,7.80
2023-04-24T19:50:33.060Z,7.80
2023-04-24T19:52:34.771Z,7.90
2023-04-24T19:54:36.500Z,7.90
2023-04-24T19:56:38.395Z,7.90
2023-04-24T19:58:40.031Z,7.90
2023-04-24T20:00:41.837Z,8.00
2023-04-24T20:02:43.549Z,8.00
2023-04-24T20:04:46.023Z,7.90
2023-04-24T20:06:47.964Z,7.80
2023-04-24T20:08:49.954Z,7.70
2023-04-24T20:10:53.706Z,7.70
2023-04-24T20:12:55.628Z,7.60
2023-04-24T20:14:57.349Z,7.60
2023-04-24T20:16:59.033Z,7.50
2023-04-24T20:19:00.777Z,7.50
2023-04-24T20:21:03.460Z,7.60
2023-04-24T20:23:05.898Z,7.60
2023-04-24T20:25:09.097Z,7.60
2023-04-24T20:27:13.063Z,7.60
2023-04-24T20:29:14.807Z,7.60
2023-04-24T20:31:16.721Z,7.60
2023-04-24T20:33:18.597Z,7.60
2023-04-24T20:35:20.437Z,7.60
2023-04-24T20:37:22.409Z,7.60
2023-04-24T20:39:24.080Z,7.60
2023-04-24T20:41:26.387Z,7.60
2023-04-24T20:43:29.298Z,7.60
2023-04-24T20:45:31.426Z,7.60
2023-04-24T20:47:33.162Z,7.60
2023-04-24T20:49:34.917Z,7.60
2023-04-24T20:51:36.933Z,7.60
2023-04-24T20:53:38.752Z,7.60
2023-04-24T20:55:41.156Z,7.60
2023-04-24T20:57:43.002Z,7.60
2023-04-24T20:59:44.719Z,7.60
2023-04-24T21:01:48.568Z,7.70
2023-04-24T21:03:52.430Z,7.70
2023-04-24T21:05:54.928Z,7.60
2023-04-24T21:07:56.664Z,7.60
2023-04-24T21:09:58.446Z,7.60
2023-04-24T21:12:00.219Z,7.50
2023-04-24T21:14:01.860Z,7.50
2023-04-24T21:16:03.666Z,7.40
2023-04-24T21:18:06.040Z,7.30
2023-04-24T21:20:08.651Z,7.20
2023-04-24T21:22:10.366Z,7.20
2023-04-24T21:24:12.190Z,7.10
2023-04-24T21:26:14.016Z,7.00
2023-04-24T21:28:15.754Z,7.00
2023-04-24T21:30:18.802Z,7.00
2023-04-24T21:32:21.435Z,6.90
2023-04-24T21:34:23.176Z,6.90
2023-04-24T21:36:24.962Z,6.90
2023-04-24T21:38:26.598Z,6.90
2023-04-24T21:40:28.301Z,6.90
2023-04-24T21:42:30.422Z,6.90
2023-04-24T21:44:32.071Z,6.90
2023-04-24T21:46:33.853Z,6.90
2023-04-24T21:48:36.668Z,7.00
2023-04-24T21:50:38.343Z,7.00
2023-04-24T21:52:40.506Z,7.00
2023-04-24T21:54:42.130Z,7.00
2023-04-24T21:56:44.118Z,7.00
2023-04-24T21:58:47.000Z,7.00
2023-04-24T22:00:48.769Z,7.00
2023-04-24T22:02:51.074Z,7.10
2023-04-24T22:04:56.360Z,7.10
2023-04-24T22:06:58.433Z,7.10
2023-04-24T22:09:00.623Z,7.10
2023-04-24T22:11:03.281Z,7.10
2023-04-24T22:13:05.090Z,7.10
2023-04-24T22:15:07.768Z,7.20
2023-04-24T22:17:10.546Z,7.20
2023-04-24T22:19:12.236Z,7.20
2023-04-24T22:21:13.952Z,7.10
2023-04-24T22:23:15.763Z,7.10
2023-04-24T22:25:18.132Z,7.20
2023-04-24T22:27:19.885Z,7.20
2023-04-24T22:29:21.524Z,7.10
2023-04-24T22:31:23.898Z,7.20
2023-04-24T22:33:25.635Z,7.20
2023-04-24T22:35:27.303Z,7.20
2023-04-24T22:37:28.963Z,7.20
2023-04-24T22:39:30.714Z,7.20
2023-04-24T22:41:32.440Z,7.20
2023-04-24T22:43:34.234Z,7.20
2023-04-24T22:45:36.093Z,7.20
2023-04-24T22:47:37.793Z,7.20
2023-04-24T22:49:39.721Z,7.20
2023-04-24T22:51:41.776Z,7.20
2023-04-24T22:53:43.511Z,7.20
2023-04-24T22:55:45.411Z,7.20
2023-04-24T22:57:49.287Z,7.20
2023-04-24T22:59:51.011Z,7.20
2023-04-24T23:01:52.841Z,7.10
2023-04-24T23:03:55.002Z,7.10
2023-04-24T23:05:56.889Z,7.00
2023-04-24T23:07:58.550Z,7.00
2023-04-24T23:10:00.259Z,6.90
2023-04-24T23:12:03.220Z,6.70
2023-04-24T23:14:04.954Z,6.60
2023-04-24T23:16:06.984Z,6.60
2023-04-24T23:18:08.727Z,6.40
2023-04-24T23:20:16.582Z,6.30
2023-04-24T23:22:18.422Z,6.30
2023-04-24T23:24:20.091Z,6.20
2023-04-24T23:26:21.856Z,6.10
2023-04-24T23:28:23.550Z,6.10
2023-04-24T23:30:25.217Z,6.10
2023-04-24T23:32:27.093Z,6.20
2023-04-24T23:34:28.815Z,6.30
2023-04-24T23:36:32.269Z,6.40
2023-04-24T23:38:46.686Z,6.50
2023-04-24T23:40:52.060Z,6.60
2023-04-24T23:43:05.748Z,6.60
2023-04-24T23:45:10.854Z,6.70
2023-04-24T23:47:12.632Z,6.70
2023-04-24T23:49:14.767Z,6.70
2023-04-24T23:51:16.453Z,6.70
2023-04-24T23:53:18.246Z,6.70
2023-04-24T23:55:20.016Z,6.70
2023-04-24T23:57:22.386Z,6.70
2023-04-24T23:59:24.041Z,6.70
